sensor_id;sensor_type;location;lat;lon;timestamp;temperature;humidity
60027;DHT22;45891;53.006;6.512;2023-09-07T00:00:37;20.20;99.00
60027;DHT22;45891;53.006;6.512;2023-09-07T00:03:03;20.20;99.00
60027;DHT22;45891;53.006;6.512;2023-09-07T00:05:31;20.10;99.00
60027;DHT22;45891;53.006;6.512;2023-09-07T00:07:57;20.10;99.00
60027;DHT22;45891;53.006;6.512;2023-09-07T00:10:23;20.00;99.00
60027;DHT22;45891;53.006;6.512;2023-09-07T00:12:51;20.00;99.10
60027;DHT22;45891;53.006;6.512;2023-09-07T00:15:18;20.00;99.20
60027;DHT22;45891;53.006;6.512;2023-09-07T00:17:47;19.90;99.30
60027;DHT22;45891;53.006;6.512;2023-09-07T00:20:13;19.90;99.30
60027;DHT22;45891;53.006;6.512;2023-09-07T00:22:40;19.90;99.60
60027;DHT22;45891;53.006;6.512;2023-09-07T00:25:06;19.80;99.40
60027;DHT22;45891;53.006;6.512;2023-09-07T00:27:33;19.80;99.80
60027;DHT22;45891;53.006;6.512;2023-09-07T00:30:00;19.80;99.60
60027;DHT22;45891;53.006;6.512;2023-09-07T00:32:26;19.70;99.60
60027;DHT22;45891;53.006;6.512;2023-09-07T00:34:53;19.70;99.70
60027;DHT22;45891;53.006;6.512;2023-09-07T00:37:19;19.70;99.70
60027;DHT22;45891;53.006;6.512;2023-09-07T00:39:45;19.60;99.80
60027;DHT22;45891;53.006;6.512;2023-09-07T00:42:11;19.60;99.90
60027;DHT22;45891;53.006;6.512;2023-09-07T00:44:37;19.50;99.90
60027;DHT22;45891;53.006;6.512;2023-09-07T00:47:03;19.50;99.90
60027;DHT22;45891;53.006;6.512;2023-09-07T00:49:31;19.50;99.90
60027;DHT22;45891;53.006;6.512;2023-09-07T00:51:57;19.40;99.90
60027;DHT22;45891;53.006;6.512;2023-09-07T00:54:23;19.40;99.90
60027;DHT22;45891;53.006;6.512;2023-09-07T00:56:49;19.40;99.90
60027;DHT22;45891;53.006;6.512;2023-09-07T00:59:16;19.40;99.90
60027;DHT22;45891;53.006;6.512;2023-09-07T01:01:42;19.30;99.90
60027;DHT22;45891;53.006;6.512;2023-09-07T01:04:14;19.30;99.90
60027;DHT22;45891;53.006;6.512;2023-09-07T01:07:13;19.20;99.90
60027;DHT22;45891;53.006;6.512;2023-09-07T01:09:44;19.20;99.90
60027;DHT22;45891;53.006;6.512;2023-09-07T01:12:25;19.20;99.90
60027;DHT22;45891;53.006;6.512;2023-09-07T01:14:51;19.20;99.90
60027;DHT22;45891;53.006;6.512;2023-09-07T01:17:19;19.10;99.90
60027;DHT22;45891;53.006;6.512;2023-09-07T01:19:48;19.10;99.90
60027;DHT22;45891;53.006;6.512;2023-09-07T01:22:19;19.00;99.90
60027;DHT22;45891;53.006;6.512;2023-09-07T01:24:46;19.00;99.90
60027;DHT22;45891;53.006;6.512;2023-09-07T01:27:12;18.90;99.90
60027;DHT22;45891;53.006;6.512;2023-09-07T01:29:41;18.90;99.90
60027;DHT22;45891;53.006;6.512;2023-09-07T01:32:07;18.80;99.90
60027;DHT22;45891;53.006;6.512;2023-09-07T01:34:37;18.80;99.90
60027;DHT22;45891;53.006;6.512;2023-09-07T01:37:03;18.80;99.90
60027;DHT22;45891;53.006;6.512;2023-09-07T01:39:29;18.70;99.90
60027;DHT22;45891;53.006;6.512;2023-09-07T01:41:55;18.70;99.90
60027;DHT22;45891;53.006;6.512;2023-09-07T01:44:21;18.70;99.90
60027;DHT22;45891;53.006;6.512;2023-09-07T01:46:47;18.60;99.90
60027;DHT22;45891;53.006;6.512;2023-09-07T01:49:18;18.60;99.90
60027;DHT22;45891;53.006;6.512;2023-09-07T01:51:44;18.60;99.90
60027;DHT22;45891;53.006;6.512;2023-09-07T01:54:10;18.50;99.90
60027;DHT22;45891;53.006;6.512;2023-09-07T01:56:37;18.50;99.90
60027;DHT22;45891;53.006;6.512;2023-09-07T01:59:03;18.40;99.90
60027;DHT22;45891;53.006;6.512;2023-09-07T02:01:31;18.40;99.90
60027;DHT22;45891;53.006;6.512;2023-09-07T02:03:57;18.40;99.90
60027;DHT22;45891;53.006;6.512;2023-09-07T02:06:23;18.30;99.90
60027;DHT22;45891;53.006;6.512;2023-09-07T02:08:49;18.30;99.90
60027;DHT22;45891;53.006;6.512;2023-09-07T02:11:16;18.30;99.90
60027;DHT22;45891;53.006;6.512;2023-09-07T02:13:43;18.20;99.90
60027;DHT22;45891;53.006;6.512;2023-09-07T02:16:09;18.20;99.90
60027;DHT22;45891;53.006;6.512;2023-09-07T02:18:36;18.20;99.90
60027;DHT22;45891;53.006;6.512;2023-09-07T02:21:04;18.20;99.90
60027;DHT22;45891;53.006;6.512;2023-09-07T02:23:32;18.20;99.90
60027;DHT22;45891;53.006;6.512;2023-09-07T02:25:59;18.20;99.90
60027;DHT22;45891;53.006;6.512;2023-09-07T02:28:25;18.20;99.90
60027;DHT22;45891;53.006;6.512;2023-09-07T02:30:52;18.10;99.90
60027;DHT22;45891;53.006;6.512;2023-09-07T02:33:18;18.10;99.90
60027;DHT22;45891;53.006;6.512;2023-09-07T02:35:44;18.10;99.90
60027;DHT22;45891;53.006;6.512;2023-09-07T02:38:10;18.00;99.90
60027;DHT22;45891;53.006;6.512;2023-09-07T02:40:43;18.00;99.90
60027;DHT22;45891;53.006;6.512;2023-09-07T02:43:10;18.00;99.90
60027;DHT22;45891;53.006;6.512;2023-09-07T02:45:36;17.90;99.90
60027;DHT22;45891;53.006;6.512;2023-09-07T02:48:03;17.90;99.90
60027;DHT22;45891;53.006;6.512;2023-09-07T02:50:32;17.80;99.90
60027;DHT22;45891;53.006;6.512;2023-09-07T02:52:59;17.80;99.90
60027;DHT22;45891;53.006;6.512;2023-09-07T02:55:26;17.70;99.90
60027;DHT22;45891;53.006;6.512;2023-09-07T02:57:53;17.70;99.90
60027;DHT22;45891;53.006;6.512;2023-09-07T03:00:21;17.60;99.90
60027;DHT22;45891;53.006;6.512;2023-09-07T03:02:47;17.50;99.90
60027;DHT22;45891;53.006;6.512;2023-09-07T03:05:17;17.50;99.90
60027;DHT22;45891;53.006;6.512;2023-09-07T03:07:45;17.40;99.90
60027;DHT22;45891;53.006;6.512;2023-09-07T03:10:11;17.40;99.90
60027;DHT22;45891;53.006;6.512;2023-09-07T03:12:37;17.30;99.90
60027;DHT22;45891;53.006;6.512;2023-09-07T03:15:04;17.30;99.90
60027;DHT22;45891;53.006;6.512;2023-09-07T03:17:31;17.30;99.90
60027;DHT22;45891;53.006;6.512;2023-09-07T03:19:57;17.20;99.90
60027;DHT22;45891;53.006;6.512;2023-09-07T03:22:24;17.10;99.90
60027;DHT22;45891;53.006;6.512;2023-09-07T03:24:53;17.10;99.90
60027;DHT22;45891;53.006;6.512;2023-09-07T03:27:19;17.10;99.90
60027;DHT22;45891;53.006;6.512;2023-09-07T03:29:49;17.00;99.90
60027;DHT22;45891;53.006;6.512;2023-09-07T03:32:15;17.00;99.90
60027;DHT22;45891;53.006;6.512;2023-09-07T03:34:41;17.00;99.90
60027;DHT22;45891;53.006;6.512;2023-09-07T03:37:07;16.90;99.90
60027;DHT22;45891;53.006;6.512;2023-09-07T03:39:37;16.90;99.90
60027;DHT22;45891;53.006;6.512;2023-09-07T03:42:03;16.90;99.90
60027;DHT22;45891;53.006;6.512;2023-09-07T03:44:29;16.80;99.90
60027;DHT22;45891;53.006;6.512;2023-09-07T03:46:55;16.80;99.90
60027;DHT22;45891;53.006;6.512;2023-09-07T03:49:22;16.80;99.90
60027;DHT22;45891;53.006;6.512;2023-09-07T03:51:48;16.80;99.90
60027;DHT22;45891;53.006;6.512;2023-09-07T03:54:14;16.80;99.90
60027;DHT22;45891;53.006;6.512;2023-09-07T03:56:40;16.80;99.90
60027;DHT22;45891;53.006;6.512;2023-09-07T03:59:06;16.80;99.90
60027;DHT22;45891;53.006;6.512;2023-09-07T04:01:32;16.80;99.90
60027;DHT22;45891;53.006;6.512;2023-09-07T04:03:58;16.70;99.90
60027;DHT22;45891;53.006;6.512;2023-09-07T04:06:24;16.80;99.90
60027;DHT22;45891;53.006;6.512;2023-09-07T04:08:51;16.80;99.90
60027;DHT22;45891;53.006;6.512;2023-09-07T04:11:17;16.70;99.90
60027;DHT22;45891;53.006;6.512;2023-09-07T04:13:43;16.70;99.90
60027;DHT22;45891;53.006;6.512;2023-09-07T04:16:09;16.70;99.90
60027;DHT22;45891;53.006;6.512;2023-09-07T04:18:35;16.70;99.90
60027;DHT22;45891;53.006;6.512;2023-09-07T04:21:08;16.70;99.90
60027;DHT22;45891;53.006;6.512;2023-09-07T04:23:34;16.70;99.90
60027;DHT22;45891;53.006;6.512;2023-09-07T04:26:08;16.60;99.90
60027;DHT22;45891;53.006;6.512;2023-09-07T04:28:34;16.60;99.90
60027;DHT22;45891;53.006;6.512;2023-09-07T04:31:01;16.60;99.90
60027;DHT22;45891;53.006;6.512;2023-09-07T04:33:31;16.60;99.90
60027;DHT22;45891;53.006;6.512;2023-09-07T04:36:12;16.60;99.90
60027;DHT22;45891;53.006;6.512;2023-09-07T04:38:40;16.50;99.90
60027;DHT22;45891;53.006;6.512;2023-09-07T04:43:33;16.50;99.90
60027;DHT22;45891;53.006;6.512;2023-09-07T04:45:59;16.50;99.90
60027;DHT22;45891;53.006;6.512;2023-09-07T04:48:26;16.40;99.90
60027;DHT22;45891;53.006;6.512;2023-09-07T04:51:02;16.40;99.90
60027;DHT22;45891;53.006;6.512;2023-09-07T04:53:31;16.40;99.90
60027;DHT22;45891;53.006;6.512;2023-09-07T04:55:58;16.40;99.90
60027;DHT22;45891;53.006;6.512;2023-09-07T04:58:24;16.30;99.90
60027;DHT22;45891;53.006;6.512;2023-09-07T05:00:51;16.40;99.90
60027;DHT22;45891;53.006;6.512;2023-09-07T05:03:17;16.30;99.90
60027;DHT22;45891;53.006;6.512;2023-09-07T05:05:43;16.30;99.90
60027;DHT22;45891;53.006;6.512;2023-09-07T05:08:10;16.30;99.90
60027;DHT22;45891;53.006;6.512;2023-09-07T05:10:37;16.40;99.90
60027;DHT22;45891;53.006;6.512;2023-09-07T05:13:03;16.30;99.90
60027;DHT22;45891;53.006;6.512;2023-09-07T05:15:30;16.30;99.90
60027;DHT22;45891;53.006;6.512;2023-09-07T05:17:56;16.40;99.90
60027;DHT22;45891;53.006;6.512;2023-09-07T05:20:22;16.30;99.90
60027;DHT22;45891;53.006;6.512;2023-09-07T05:22:48;16.40;99.90
60027;DHT22;45891;53.006;6.512;2023-09-07T05:25:14;16.40;99.90
60027;DHT22;45891;53.006;6.512;2023-09-07T05:27:40;16.40;99.90
60027;DHT22;45891;53.006;6.512;2023-09-07T05:30:07;16.50;99.90
60027;DHT22;45891;53.006;6.512;2023-09-07T05:32:33;16.60;99.90
60027;DHT22;45891;53.006;6.512;2023-09-07T05:34:59;16.60;99.90
60027;DHT22;45891;53.006;6.512;2023-09-07T05:37:28;16.60;99.90
60027;DHT22;45891;53.006;6.512;2023-09-07T05:39:54;16.90;99.90
60027;DHT22;45891;53.006;6.512;2023-09-07T05:42:20;17.40;99.90
60027;DHT22;45891;53.006;6.512;2023-09-07T05:44:46;18.00;99.90
60027;DHT22;45891;53.006;6.512;2023-09-07T05:47:12;18.50;99.90
60027;DHT22;45891;53.006;6.512;2023-09-07T05:49:38;18.90;99.90
60027;DHT22;45891;53.006;6.512;2023-09-07T05:52:04;19.40;99.90
60027;DHT22;45891;53.006;6.512;2023-09-07T05:54:31;19.70;99.90
60027;DHT22;45891;53.006;6.512;2023-09-07T05:56:57;20.10;99.90
60027;DHT22;45891;53.006;6.512;2023-09-07T05:59:23;20.40;99.90
60027;DHT22;45891;53.006;6.512;2023-09-07T06:01:49;20.60;99.90
60027;DHT22;45891;53.006;6.512;2023-09-07T06:04:15;20.90;99.90
60027;DHT22;45891;53.006;6.512;2023-09-07T06:06:41;21.20;99.90
60027;DHT22;45891;53.006;6.512;2023-09-07T06:09:07;21.50;99.90
60027;DHT22;45891;53.006;6.512;2023-09-07T06:11:33;21.70;99.90
60027;DHT22;45891;53.006;6.512;2023-09-07T06:14:00;22.00;99.90
60027;DHT22;45891;53.006;6.512;2023-09-07T06:16:26;22.20;99.90
60027;DHT22;45891;53.006;6.512;2023-09-07T06:18:52;22.20;99.90
60027;DHT22;45891;53.006;6.512;2023-09-07T06:21:18;22.50;99.90
60027;DHT22;45891;53.006;6.512;2023-09-07T06:23:44;22.80;99.90
60027;DHT22;45891;53.006;6.512;2023-09-07T06:26:10;23.10;99.90
60027;DHT22;45891;53.006;6.512;2023-09-07T06:28:37;23.40;99.60
60027;DHT22;45891;53.006;6.512;2023-09-07T06:31:03;23.70;99.50
60027;DHT22;45891;53.006;6.512;2023-09-07T06:33:29;23.90;99.10
60027;DHT22;45891;53.006;6.512;2023-09-07T06:35:55;24.20;99.00
60027;DHT22;45891;53.006;6.512;2023-09-07T06:38:23;24.30;98.10
60027;DHT22;45891;53.006;6.512;2023-09-07T06:40:50;24.50;98.20
60027;DHT22;45891;53.006;6.512;2023-09-07T06:43:16;24.60;98.00
60027;DHT22;45891;53.006;6.512;2023-09-07T06:45:42;24.70;97.80
60027;DHT22;45891;53.006;6.512;2023-09-07T06:48:08;24.80;97.50
60027;DHT22;45891;53.006;6.512;2023-09-07T06:50:35;25.00;97.20
60027;DHT22;45891;53.006;6.512;2023-09-07T06:53:01;25.20;97.00
60027;DHT22;45891;53.006;6.512;2023-09-07T06:55:28;25.40;96.60
60027;DHT22;45891;53.006;6.512;2023-09-07T06:57:54;25.60;96.70
60027;DHT22;45891;53.006;6.512;2023-09-07T07:00:21;25.80;96.30
60027;DHT22;45891;53.006;6.512;2023-09-07T07:02:47;26.00;95.80
60027;DHT22;45891;53.006;6.512;2023-09-07T07:05:14;26.30;95.70
60027;DHT22;45891;53.006;6.512;2023-09-07T07:07:40;26.40;95.40
60027;DHT22;45891;53.006;6.512;2023-09-07T07:10:06;26.60;95.10
60027;DHT22;45891;53.006;6.512;2023-09-07T07:12:33;26.80;95.10
60027;DHT22;45891;53.006;6.512;2023-09-07T07:15:01;26.90;94.50
60027;DHT22;45891;53.006;6.512;2023-09-07T07:17:28;26.90;94.30
60027;DHT22;45891;53.006;6.512;2023-09-07T07:19:54;27.00;93.90
60027;DHT22;45891;53.006;6.512;2023-09-07T07:22:20;27.10;93.80
60027;DHT22;45891;53.006;6.512;2023-09-07T07:24:46;27.30;93.60
60027;DHT22;45891;53.006;6.512;2023-09-07T07:27:12;27.50;93.40
60027;DHT22;45891;53.006;6.512;2023-09-07T07:29:38;27.70;93.30
60027;DHT22;45891;53.006;6.512;2023-09-07T07:32:05;27.80;92.60
60027;DHT22;45891;53.006;6.512;2023-09-07T07:34:31;27.90;92.10
60027;DHT22;45891;53.006;6.512;2023-09-07T07:36:57;28.00;92.10
60027;DHT22;45891;53.006;6.512;2023-09-07T07:39:23;28.20;92.20
60027;DHT22;45891;53.006;6.512;2023-09-07T07:41:49;28.40;91.70
60027;DHT22;45891;53.006;6.512;2023-09-07T07:44:15;28.40;91.60
60027;DHT22;45891;53.006;6.512;2023-09-07T07:46:41;28.50;90.30
60027;DHT22;45891;53.006;6.512;2023-09-07T07:49:07;28.60;90.30
60027;DHT22;45891;53.006;6.512;2023-09-07T07:51:35;28.70;90.50
60027;DHT22;45891;53.006;6.512;2023-09-07T07:54:01;28.80;90.60
60027;DHT22;45891;53.006;6.512;2023-09-07T07:56:27;28.70;90.10
60027;DHT22;45891;53.006;6.512;2023-09-07T07:58:53;28.90;90.10
60027;DHT22;45891;53.006;6.512;2023-09-07T08:01:20;29.10;90.30
60027;DHT22;45891;53.006;6.512;2023-09-07T08:03:47;29.30;89.10
60027;DHT22;45891;53.006;6.512;2023-09-07T08:06:13;29.60;89.40
60027;DHT22;45891;53.006;6.512;2023-09-07T08:08:39;29.90;89.40
60027;DHT22;45891;53.006;6.512;2023-09-07T08:11:05;30.20;88.80
60027;DHT22;45891;53.006;6.512;2023-09-07T08:13:33;30.40;87.80
60027;DHT22;45891;53.006;6.512;2023-09-07T08:16:03;30.50;87.20
60027;DHT22;45891;53.006;6.512;2023-09-07T08:18:33;30.70;86.10
60027;DHT22;45891;53.006;6.512;2023-09-07T08:21:00;30.80;87.20
60027;DHT22;45891;53.006;6.512;2023-09-07T08:23:26;31.10;86.60
60027;DHT22;45891;53.006;6.512;2023-09-07T08:25:52;31.30;86.50
60027;DHT22;45891;53.006;6.512;2023-09-07T08:28:19;31.30;84.80
60027;DHT22;45891;53.006;6.512;2023-09-07T08:30:49;31.60;84.70
60027;DHT22;45891;53.006;6.512;2023-09-07T08:33:16;31.50;84.00
60027;DHT22;45891;53.006;6.512;2023-09-07T08:35:42;31.60;84.10
60027;DHT22;45891;53.006;6.512;2023-09-07T08:38:10;32.00;83.60
60027;DHT22;45891;53.006;6.512;2023-09-07T08:40:38;32.30;82.70
60027;DHT22;45891;53.006;6.512;2023-09-07T08:43:09;32.00;81.20
60027;DHT22;45891;53.006;6.512;2023-09-07T08:45:42;32.20;82.10
60027;DHT22;45891;53.006;6.512;2023-09-07T08:48:13;32.30;80.70
60027;DHT22;45891;53.006;6.512;2023-09-07T08:50:45;32.50;81.50
60027;DHT22;45891;53.006;6.512;2023-09-07T08:53:19;32.80;81.20
60027;DHT22;45891;53.006;6.512;2023-09-07T08:55:46;33.10;80.50
60027;DHT22;45891;53.006;6.512;2023-09-07T08:58:12;33.30;80.00
60027;DHT22;45891;53.006;6.512;2023-09-07T09:00:40;33.50;79.40
60027;DHT22;45891;53.006;6.512;2023-09-07T09:03:10;33.50;79.50
60027;DHT22;45891;53.006;6.512;2023-09-07T09:05:39;33.60;79.10
60027;DHT22;45891;53.006;6.512;2023-09-07T09:08:05;33.50;77.50
60027;DHT22;45891;53.006;6.512;2023-09-07T09:10:32;33.60;78.10
60027;DHT22;45891;53.006;6.512;2023-09-07T09:12:58;33.90;78.40
60027;DHT22;45891;53.006;6.512;2023-09-07T09:15:27;33.90;76.20
60027;DHT22;45891;53.006;6.512;2023-09-07T09:17:53;33.70;77.00
60027;DHT22;45891;53.006;6.512;2023-09-07T09:20:28;34.10;76.50
60027;DHT22;45891;53.006;6.512;2023-09-07T09:22:55;34.50;74.80
60027;DHT22;45891;53.006;6.512;2023-09-07T09:25:22;34.80;76.60
60027;DHT22;45891;53.006;6.512;2023-09-07T09:27:48;35.20;75.50
60027;DHT22;45891;53.006;6.512;2023-09-07T09:30:15;35.60;76.20
60027;DHT22;45891;53.006;6.512;2023-09-07T09:32:43;35.80;74.70
60027;DHT22;45891;53.006;6.512;2023-09-07T09:35:09;35.90;74.80
60027;DHT22;45891;53.006;6.512;2023-09-07T09:37:48;36.20;73.80
60027;DHT22;45891;53.006;6.512;2023-09-07T09:40:15;36.70;73.70
60027;DHT22;45891;53.006;6.512;2023-09-07T09:42:43;37.10;74.50
60027;DHT22;45891;53.006;6.512;2023-09-07T09:45:10;36.90;73.70
60027;DHT22;45891;53.006;6.512;2023-09-07T09:47:39;37.00;73.50
60027;DHT22;45891;53.006;6.512;2023-09-07T09:50:08;36.80;72.70
60027;DHT22;45891;53.006;6.512;2023-09-07T09:52:35;36.60;72.50
60027;DHT22;45891;53.006;6.512;2023-09-07T09:55:04;36.80;71.30
60027;DHT22;45891;53.006;6.512;2023-09-07T09:57:34;37.00;70.80
60027;DHT22;45891;53.006;6.512;2023-09-07T10:00:02;37.40;71.00
60027;DHT22;45891;53.006;6.512;2023-09-07T10:02:46;37.50;70.90
60027;DHT22;45891;53.006;6.512;2023-09-07T10:05:12;37.70;70.60
60027;DHT22;45891;53.006;6.512;2023-09-07T10:07:44;38.00;70.30
60027;DHT22;45891;53.006;6.512;2023-09-07T10:10:13;38.10;70.10
60027;DHT22;45891;53.006;6.512;2023-09-07T10:12:42;38.30;70.70
60027;DHT22;45891;53.006;6.512;2023-09-07T10:15:26;38.20;70.50
60027;DHT22;45891;53.006;6.512;2023-09-07T10:18:13;37.80;70.40
60027;DHT22;45891;53.006;6.512;2023-09-07T10:20:55;37.70;69.30
60027;DHT22;45891;53.006;6.512;2023-09-07T10:23:22;37.70;69.40
60027;DHT22;45891;53.006;6.512;2023-09-07T10:25:51;37.60;70.10
60027;DHT22;45891;53.006;6.512;2023-09-07T10:28:24;37.60;69.40
60027;DHT22;45891;53.006;6.512;2023-09-07T10:31:04;37.20;69.50
60027;DHT22;45891;53.006;6.512;2023-09-07T10:33:35;37.70;69.70
60027;DHT22;45891;53.006;6.512;2023-09-07T10:36:03;37.70;69.10
60027;DHT22;45891;53.006;6.512;2023-09-07T10:38:31;37.60;68.50
60027;DHT22;45891;53.006;6.512;2023-09-07T10:40:59;37.90;68.50
60027;DHT22;45891;53.006;6.512;2023-09-07T10:43:30;38.00;68.90
60027;DHT22;45891;53.006;6.512;2023-09-07T10:45:57;37.90;68.90
60027;DHT22;45891;53.006;6.512;2023-09-07T10:48:29;37.70;68.90
60027;DHT22;45891;53.006;6.512;2023-09-07T10:50:55;37.80;68.70
60027;DHT22;45891;53.006;6.512;2023-09-07T10:53:30;37.70;68.70
60027;DHT22;45891;53.006;6.512;2023-09-07T10:55:59;38.10;68.10
60027;DHT22;45891;53.006;6.512;2023-09-07T10:58:30;38.20;69.40
60027;DHT22;45891;53.006;6.512;2023-09-07T11:00:57;38.40;68.40
60027;DHT22;45891;53.006;6.512;2023-09-07T11:03:27;38.40;67.80
60027;DHT22;45891;53.006;6.512;2023-09-07T11:06:00;38.60;68.20
60027;DHT22;45891;53.006;6.512;2023-09-07T11:08:29;38.30;66.60
60027;DHT22;45891;53.006;6.512;2023-09-07T11:10:55;38.40;68.20
60027;DHT22;45891;53.006;6.512;2023-09-07T11:13:24;38.60;66.90
60027;DHT22;45891;53.006;6.512;2023-09-07T11:15:53;38.40;66.30
60027;DHT22;45891;53.006;6.512;2023-09-07T11:18:21;38.20;67.00
60027;DHT22;45891;53.006;6.512;2023-09-07T11:20:49;38.00;66.20
60027;DHT22;45891;53.006;6.512;2023-09-07T11:23:16;37.60;67.40
60027;DHT22;45891;53.006;6.512;2023-09-07T11:25:43;37.70;67.50
60027;DHT22;45891;53.006;6.512;2023-09-07T11:28:09;37.90;67.00
60027;DHT22;45891;53.006;6.512;2023-09-07T11:30:47;38.00;66.80
60027;DHT22;45891;53.006;6.512;2023-09-07T11:33:15;37.70;66.30
60027;DHT22;45891;53.006;6.512;2023-09-07T11:35:41;37.90;66.80
60027;DHT22;45891;53.006;6.512;2023-09-07T11:38:07;38.10;67.50
60027;DHT22;45891;53.006;6.512;2023-09-07T11:40:36;38.40;66.80
60027;DHT22;45891;53.006;6.512;2023-09-07T11:43:03;38.50;66.10
60027;DHT22;45891;53.006;6.512;2023-09-07T11:45:29;38.50;65.50
60027;DHT22;45891;53.006;6.512;2023-09-07T11:47:55;38.80;66.50
60027;DHT22;45891;53.006;6.512;2023-09-07T11:50:23;39.20;66.00
60027;DHT22;45891;53.006;6.512;2023-09-07T11:52:50;39.50;65.30
60027;DHT22;45891;53.006;6.512;2023-09-07T11:55:17;39.70;64.70
60027;DHT22;45891;53.006;6.512;2023-09-07T11:57:43;39.00;64.20
60027;DHT22;45891;53.006;6.512;2023-09-07T12:00:10;39.30;65.60
60027;DHT22;45891;53.006;6.512;2023-09-07T12:02:40;39.60;65.70
60027;DHT22;45891;53.006;6.512;2023-09-07T12:05:07;40.00;63.00
60027;DHT22;45891;53.006;6.512;2023-09-07T12:07:35;40.10;62.80
60027;DHT22;45891;53.006;6.512;2023-09-07T12:10:02;39.90;61.00
60027;DHT22;45891;53.006;6.512;2023-09-07T12:12:28;39.20;61.10
60027;DHT22;45891;53.006;6.512;2023-09-07T12:14:54;39.30;61.90
60027;DHT22;45891;53.006;6.512;2023-09-07T12:17:22;39.20;61.90
60027;DHT22;45891;53.006;6.512;2023-09-07T12:19:50;39.40;62.40
60027;DHT22;45891;53.006;6.512;2023-09-07T12:22:16;39.60;60.40
60027;DHT22;45891;53.006;6.512;2023-09-07T12:24:43;39.60;60.70
60027;DHT22;45891;53.006;6.512;2023-09-07T12:27:09;39.30;60.70
60027;DHT22;45891;53.006;6.512;2023-09-07T12:29:35;39.10;61.50
60027;DHT22;45891;53.006;6.512;2023-09-07T12:32:01;39.10;61.00
60027;DHT22;45891;53.006;6.512;2023-09-07T12:34:28;38.80;61.10
60027;DHT22;45891;53.006;6.512;2023-09-07T12:36:54;38.60;60.10
60027;DHT22;45891;53.006;6.512;2023-09-07T12:39:20;38.20;60.60
60027;DHT22;45891;53.006;6.512;2023-09-07T12:41:46;38.30;61.40
60027;DHT22;45891;53.006;6.512;2023-09-07T12:44:12;38.50;61.50
60027;DHT22;45891;53.006;6.512;2023-09-07T12:46:38;38.70;61.10
60027;DHT22;45891;53.006;6.512;2023-09-07T12:49:05;38.90;60.30
60027;DHT22;45891;53.006;6.512;2023-09-07T12:51:32;38.90;60.70
60027;DHT22;45891;53.006;6.512;2023-09-07T12:53:58;38.90;60.90
60027;DHT22;45891;53.006;6.512;2023-09-07T12:56:24;39.20;61.30
60027;DHT22;45891;53.006;6.512;2023-09-07T12:58:50;39.40;60.30
60027;DHT22;45891;53.006;6.512;2023-09-07T13:01:18;39.80;61.30
60027;DHT22;45891;53.006;6.512;2023-09-07T13:03:44;39.90;61.00
60027;DHT22;45891;53.006;6.512;2023-09-07T13:06:10;40.10;60.10
60027;DHT22;45891;53.006;6.512;2023-09-07T13:08:36;40.00;61.10
60027;DHT22;45891;53.006;6.512;2023-09-07T13:11:03;40.40;61.90
60027;DHT22;45891;53.006;6.512;2023-09-07T13:13:29;40.50;59.40
60027;DHT22;45891;53.006;6.512;2023-09-07T13:15:58;40.50;60.00
60027;DHT22;45891;53.006;6.512;2023-09-07T13:18:24;40.50;59.80
60027;DHT22;45891;53.006;6.512;2023-09-07T13:20:51;40.00;59.50
60027;DHT22;45891;53.006;6.512;2023-09-07T13:23:28;39.80;61.00
60027;DHT22;45891;53.006;6.512;2023-09-07T13:25:55;39.90;59.80
60027;DHT22;45891;53.006;6.512;2023-09-07T13:28:26;39.60;60.40
60027;DHT22;45891;53.006;6.512;2023-09-07T13:30:52;39.60;60.20
60027;DHT22;45891;53.006;6.512;2023-09-07T13:33:18;39.50;60.40
60027;DHT22;45891;53.006;6.512;2023-09-07T13:35:44;39.50;60.00
60027;DHT22;45891;53.006;6.512;2023-09-07T13:38:11;39.60;60.20
60027;DHT22;45891;53.006;6.512;2023-09-07T13:40:37;39.60;60.30
60027;DHT22;45891;53.006;6.512;2023-09-07T13:43:03;39.50;61.50
60027;DHT22;45891;53.006;6.512;2023-09-07T13:45:29;39.70;61.80
60027;DHT22;45891;53.006;6.512;2023-09-07T13:47:56;40.40;60.50
60027;DHT22;45891;53.006;6.512;2023-09-07T13:50:22;40.40;60.70
60027;DHT22;45891;53.006;6.512;2023-09-07T13:52:48;40.30;59.50
60027;DHT22;45891;53.006;6.512;2023-09-07T13:55:15;40.00;59.80
60027;DHT22;45891;53.006;6.512;2023-09-07T13:57:41;39.90;58.00
60027;DHT22;45891;53.006;6.512;2023-09-07T14:00:07;40.10;59.40
60027;DHT22;45891;53.006;6.512;2023-09-07T14:02:33;40.20;59.30
60027;DHT22;45891;53.006;6.512;2023-09-07T14:04:59;40.30;59.50
60027;DHT22;45891;53.006;6.512;2023-09-07T14:07:26;40.20;59.80
60027;DHT22;45891;53.006;6.512;2023-09-07T14:09:53;40.40;60.00
60027;DHT22;45891;53.006;6.512;2023-09-07T14:12:19;40.30;57.90
60027;DHT22;45891;53.006;6.512;2023-09-07T14:14:45;39.70;59.90
60027;DHT22;45891;53.006;6.512;2023-09-07T14:17:11;39.60;59.70
60027;DHT22;45891;53.006;6.512;2023-09-07T14:19:38;39.60;58.50
60027;DHT22;45891;53.006;6.512;2023-09-07T14:22:04;39.30;58.50
60027;DHT22;45891;53.006;6.512;2023-09-07T14:24:31;39.90;59.10
60027;DHT22;45891;53.006;6.512;2023-09-07T14:26:57;39.90;58.40
60027;DHT22;45891;53.006;6.512;2023-09-07T14:29:24;39.60;58.80
60027;DHT22;45891;53.006;6.512;2023-09-07T14:31:50;39.30;59.60
60027;DHT22;45891;53.006;6.512;2023-09-07T14:34:16;39.20;58.20
60027;DHT22;45891;53.006;6.512;2023-09-07T14:36:42;39.30;58.80
60027;DHT22;45891;53.006;6.512;2023-09-07T14:39:08;39.70;59.20
60027;DHT22;45891;53.006;6.512;2023-09-07T14:41:35;40.00;58.90
60027;DHT22;45891;53.006;6.512;2023-09-07T14:44:01;40.10;58.10
60027;DHT22;45891;53.006;6.512;2023-09-07T14:46:28;40.00;58.30
60027;DHT22;45891;53.006;6.512;2023-09-07T14:48:55;40.30;58.60
60027;DHT22;45891;53.006;6.512;2023-09-07T14:51:22;40.00;56.80
60027;DHT22;45891;53.006;6.512;2023-09-07T14:53:48;40.20;57.00
60027;DHT22;45891;53.006;6.512;2023-09-07T14:56:14;40.30;57.60
60027;DHT22;45891;53.006;6.512;2023-09-07T14:58:40;40.50;58.20
60027;DHT22;45891;53.006;6.512;2023-09-07T15:01:06;40.60;57.70
60027;DHT22;45891;53.006;6.512;2023-09-07T15:03:33;40.50;58.00
60027;DHT22;45891;53.006;6.512;2023-09-07T15:05:59;40.10;58.20
60027;DHT22;45891;53.006;6.512;2023-09-07T15:08:25;40.30;58.70
60027;DHT22;45891;53.006;6.512;2023-09-07T15:10:52;39.90;59.20
60027;DHT22;45891;53.006;6.512;2023-09-07T15:13:18;39.40;58.70
60027;DHT22;45891;53.006;6.512;2023-09-07T15:15:46;39.50;59.60
60027;DHT22;45891;53.006;6.512;2023-09-07T15:18:12;39.80;58.10
60027;DHT22;45891;53.006;6.512;2023-09-07T15:20:38;39.30;58.60
60027;DHT22;45891;53.006;6.512;2023-09-07T15:23:04;39.10;58.50
60027;DHT22;45891;53.006;6.512;2023-09-07T15:25:30;39.00;59.40
60027;DHT22;45891;53.006;6.512;2023-09-07T15:27:56;38.60;59.10
60027;DHT22;45891;53.006;6.512;2023-09-07T15:30:23;38.90;59.10
60027;DHT22;45891;53.006;6.512;2023-09-07T15:32:50;38.90;59.10